createdAt,value
2018-12-05T00:00:30.940Z,21.78
2018-12-05T00:01:30.934Z,21.78
2018-12-05T00:02:31.120Z,21.77
2018-12-05T00:03:30.963Z,21.77
2018-12-05T00:04:31.016Z,21.77
2018-12-05T00:05:31.011Z,21.70
2018-12-05T00:06:31.052Z,21.69
2018-12-05T00:07:31.161Z,21.68
2018-12-05T00:08:31.057Z,21.68
2018-12-05T00:09:31.079Z,21.65
2018-12-05T00:10:31.111Z,21.63
2018-12-05T00:11:31.097Z,21.70
2018-12-05T00:12:31.234Z,21.66
2018-12-05T00:13:31.142Z,21.62
2018-12-05T00:14:31.166Z,21.72
2018-12-05T00:15:31.186Z,21.65
2018-12-05T00:16:31.208Z,21.65
2018-12-05T00:17:31.339Z,21.62
2018-12-05T00:18:31.219Z,21.65
2018-12-05T00:19:31.247Z,21.68
2018-12-05T00:20:31.270Z,21.65
2018-12-05T00:21:31.297Z,21.66
2018-12-05T00:22:31.432Z,21.62
2018-12-05T00:23:31.342Z,21.72
2018-12-05T00:24:31.307Z,21.65
2018-12-05T00:25:31.337Z,21.66
2018-12-05T00:26:31.353Z,21.68
2018-12-05T00:27:31.473Z,21.68
2018-12-05T00:28:31.390Z,21.74
2018-12-05T00:29:31.402Z,21.72
2018-12-05T00:30:31.424Z,21.77
2018-12-05T00:31:31.432Z,21.69
2018-12-05T00:32:31.615Z,21.65
2018-12-05T00:33:31.470Z,21.62
2018-12-05T00:34:31.478Z,21.53
2018-12-05T00:35:31.504Z,21.59
2018-12-05T00:36:31.530Z,21.56
2018-12-05T00:37:31.686Z,21.56
2018-12-05T00:38:31.553Z,21.54
2018-12-05T00:39:31.572Z,21.56
2018-12-05T00:40:31.568Z,21.48
2018-12-05T00:41:31.600Z,21.45
2018-12-05T00:42:31.662Z,21.44
2018-12-05T00:43:31.644Z,21.43
2018-12-05T00:44:31.742Z,21.48
2018-12-05T00:45:31.663Z,21.45
2018-12-05T00:46:31.696Z,21.51
2018-12-05T00:47:31.713Z,21.53
2018-12-05T00:48:31.695Z,21.62
2018-12-05T00:49:31.885Z,21.69
2018-12-05T00:50:31.790Z,21.74
2018-12-05T00:51:31.760Z,21.81
2018-12-05T00:52:31.793Z,21.85
2018-12-05T00:53:31.793Z,21.88
2018-12-05T00:54:31.942Z,22.01
2018-12-05T00:55:31.822Z,22.00
2018-12-05T00:56:31.842Z,22.08
2018-12-05T00:57:31.850Z,22.07
2018-12-05T00:58:31.890Z,22.08
2018-12-05T00:59:31.988Z,22.04
2018-12-05T01:00:31.912Z,22.08
2018-12-05T01:01:31.911Z,21.99
2018-12-05T01:02:31.915Z,21.99
2018-12-05T01:03:31.999Z,22.01
2018-12-05T01:04:32.136Z,21.96
2018-12-05T01:05:31.979Z,22.12
2018-12-05T01:06:32.000Z,22.18
2018-12-05T01:07:32.026Z,22.15
2018-12-05T01:08:32.014Z,22.19
2018-12-05T01:09:32.115Z,22.18
2018-12-05T01:10:32.063Z,22.21
2018-12-05T01:11:32.074Z,22.21
2018-12-05T01:12:32.108Z,22.26
2018-12-05T01:13:32.110Z,22.23
2018-12-05T01:14:32.206Z,22.19
2018-12-05T01:15:32.161Z,22.19
2018-12-05T01:16:32.155Z,22.18
2018-12-05T01:17:32.185Z,22.10
2018-12-05T01:18:32.234Z,22.10
2018-12-05T01:19:32.306Z,21.99
2018-12-05T01:20:32.225Z,21.97
2018-12-05T01:21:32.240Z,21.99
2018-12-05T01:22:32.275Z,22.00
2018-12-05T01:23:32.273Z,22.12
2018-12-05T01:24:32.397Z,22.06
2018-12-05T01:25:32.293Z,22.18
2018-12-05T01:26:32.330Z,22.15
2018-12-05T01:27:32.345Z,22.08
2018-12-05T01:28:32.361Z,22.04
2018-12-05T01:29:32.468Z,21.99
2018-12-05T01:30:32.363Z,21.96
2018-12-05T01:31:32.386Z,21.83
2018-12-05T01:32:32.414Z,21.83
2018-12-05T01:33:32.449Z,21.80
2018-12-05T01:34:32.606Z,21.69
2018-12-05T01:35:32.467Z,21.66
2018-12-05T01:36:32.486Z,21.58
2018-12-05T01:37:32.490Z,21.58
2018-12-05T01:38:32.530Z,21.58
2018-12-05T01:39:32.643Z,21.53
2018-12-05T01:40:32.555Z,21.54
2018-12-05T01:41:32.563Z,21.53
2018-12-05T01:42:32.558Z,21.47
2018-12-05T01:43:32.599Z,21.48
2018-12-05T01:44:32.703Z,21.40
2018-12-05T01:45:32.609Z,21.43
2018-12-05T01:46:32.634Z,21.43
2018-12-05T01:47:32.650Z,21.33
2018-12-05T01:48:32.668Z,21.37
2018-12-05T01:49:32.836Z,21.29
2018-12-05T01:50:32.707Z,21.37
2018-12-05T01:51:32.715Z,21.30
2018-12-05T01:52:32.745Z,21.20
2018-12-05T01:53:32.760Z,21.19
2018-12-05T01:54:32.888Z,21.19
2018-12-05T01:55:32.810Z,21.20
2018-12-05T01:56:32.786Z,21.17
2018-12-05T01:57:32.819Z,21.23
2018-12-05T01:58:32.874Z,21.13
2018-12-05T01:59:32.907Z,21.13
2018-12-05T02:00:32.855Z,21.13
2018-12-05T02:01:32.887Z,21.13
2018-12-05T02:02:32.911Z,21.14
2018-12-05T02:03:32.904Z,21.08
2018-12-05T02:04:33.042Z,21.04
2018-12-05T02:05:32.930Z,21.07
2018-12-05T02:06:32.966Z,21.08
2018-12-05T02:07:32.962Z,21.04
2018-12-05T02:08:32.979Z,21.01
2018-12-05T02:09:33.160Z,21.08
2018-12-05T02:10:33.019Z,21.04
2018-12-05T02:11:33.037Z,21.04
2018-12-05T02:12:33.071Z,20.96
2018-12-05T02:13:33.083Z,21.01
2018-12-05T02:14:33.239Z,20.95
2018-12-05T02:15:33.105Z,20.96
2018-12-05T02:16:33.121Z,21.00
2018-12-05T02:17:33.177Z,21.00
2018-12-05T02:18:33.150Z,20.98
2018-12-05T02:19:33.287Z,20.98
2018-12-05T02:20:33.200Z,21.03
2018-12-05T02:21:33.181Z,21.01
2018-12-05T02:22:33.219Z,21.05
2018-12-05T02:23:33.285Z,20.93
2018-12-05T02:24:33.411Z,20.98
2018-12-05T02:25:33.265Z,20.98
2018-12-05T02:26:33.278Z,20.90
2018-12-05T02:27:33.285Z,20.89
2018-12-05T02:28:33.307Z,20.89
2018-12-05T02:29:33.424Z,20.92
2018-12-05T02:30:33.332Z,20.86
2018-12-05T02:31:33.354Z,20.92
2018-12-05T02:32:33.374Z,21.07
2018-12-05T02:33:33.364Z,21.05
2018-12-05T02:34:33.493Z,21.11
2018-12-05T02:35:33.425Z,21.11
2018-12-05T02:36:33.437Z,21.05
2018-12-05T02:37:33.449Z,21.07
2018-12-05T02:38:33.465Z,21.07
2018-12-05T02:39:33.629Z,21.04
2018-12-05T02:40:33.474Z,21.03
2018-12-05T02:41:33.562Z,21.08
2018-12-05T02:42:33.514Z,21.05
2018-12-05T02:43:33.588Z,21.08
2018-12-05T02:44:33.613Z,21.19
2018-12-05T02:45:33.585Z,21.11
2018-12-05T02:46:33.607Z,21.08
2018-12-05T02:47:33.586Z,21.00
2018-12-05T02:48:33.637Z,20.98
2018-12-05T02:49:33.738Z,20.93
2018-12-05T02:50:33.643Z,20.96
2018-12-05T02:51:33.667Z,20.92
2018-12-05T02:52:33.674Z,21.07
2018-12-05T02:53:33.694Z,21.04
2018-12-05T02:54:33.763Z,21.05
2018-12-05T02:55:33.714Z,21.04
2018-12-05T02:56:33.761Z,21.01
2018-12-05T02:57:33.740Z,21.07
2018-12-05T02:58:33.790Z,21.03
2018-12-05T02:59:33.885Z,20.98
2018-12-05T03:00:33.807Z,21.07
2018-12-05T03:01:33.845Z,21.08
2018-12-05T03:02:33.824Z,21.07
2018-12-05T03:03:33.893Z,21.08
2018-12-05T03:04:33.967Z,21.10
2018-12-05T03:05:33.883Z,21.11
2018-12-05T03:06:33.896Z,21.11
2018-12-05T03:07:33.913Z,21.08
2018-12-05T03:08:33.924Z,21.13
2018-12-05T03:09:34.028Z,21.08
2018-12-05T03:10:33.974Z,21.13
2018-12-05T03:11:33.965Z,21.10
2018-12-05T03:12:34.001Z,21.11
2018-12-05T03:13:33.991Z,21.04
2018-12-05T03:14:34.138Z,21.04
2018-12-05T03:15:34.052Z,21.04
2018-12-05T03:16:34.039Z,20.92
2018-12-05T03:17:34.062Z,21.08
2018-12-05T03:18:34.072Z,20.98
2018-12-05T03:19:34.228Z,20.95
2018-12-05T03:20:34.104Z,21.00
2018-12-05T03:21:34.123Z,21.04
2018-12-05T03:22:34.147Z,20.96
2018-12-05T03:23:34.151Z,20.93
2018-12-05T03:24:34.274Z,20.86
2018-12-05T03:25:34.193Z,20.78
2018-12-05T03:26:34.211Z,20.82
2018-12-05T03:27:34.303Z,20.75
2018-12-05T03:28:34.226Z,20.63
2018-12-05T03:29:34.362Z,20.73
2018-12-05T03:30:34.275Z,20.73
2018-12-05T03:31:34.293Z,20.73
2018-12-05T03:32:34.312Z,20.59
2018-12-05T03:33:34.311Z,20.64
2018-12-05T03:34:34.388Z,20.63
2018-12-05T03:35:34.331Z,20.70
2018-12-05T03:36:34.342Z,20.59
2018-12-05T03:37:34.384Z,20.70
2018-12-05T03:38:34.388Z,20.63
2018-12-05T03:39:34.510Z,20.71
2018-12-05T03:40:34.434Z,20.73
2018-12-05T03:41:34.428Z,20.73
2018-12-05T03:42:34.459Z,20.63
2018-12-05T03:43:34.493Z,20.64
2018-12-05T03:44:34.574Z,20.60
2018-12-05T03:45:34.496Z,20.55
2018-12-05T03:46:34.521Z,20.52
2018-12-05T03:47:34.512Z,20.48
2018-12-05T03:48:34.547Z,20.44
2018-12-05T03:49:34.707Z,20.53
2018-12-05T03:50:34.571Z,20.48
2018-12-05T03:51:34.582Z,20.39
2018-12-05T03:52:34.585Z,20.42
2018-12-05T03:53:34.656Z,20.44
2018-12-05T03:54:34.738Z,20.48
2018-12-05T03:55:34.655Z,20.44
2018-12-05T03:56:34.657Z,20.48
2018-12-05T03:57:34.676Z,20.42
2018-12-05T03:58:34.701Z,20.60
2018-12-05T03:59:34.864Z,20.59
2018-12-05T04:00:34.719Z,20.52
2018-12-05T04:01:34.728Z,20.40
2018-12-05T04:02:34.762Z,20.46
2018-12-05T04:03:34.761Z,20.48
2018-12-05T04:04:34.879Z,20.39
2018-12-05T04:05:34.801Z,20.39
2018-12-05T04:06:34.807Z,20.48
2018-12-05T04:07:34.829Z,20.37
2018-12-05T04:08:34.886Z,20.40
2018-12-05T04:09:35.129Z,20.34
2018-12-05T04:10:34.892Z,20.37
2018-12-05T04:11:34.895Z,20.34
2018-12-05T04:12:40.506Z,20.36
2018-12-05T04:13:34.912Z,20.32
2018-12-05T04:14:35.027Z,20.27
2018-12-05T04:15:34.937Z,20.44
2018-12-05T04:16:34.988Z,20.44
2018-12-05T04:17:34.989Z,20.40
2018-12-05T04:18:34.986Z,20.40
2018-12-05T04:19:35.103Z,20.40
2018-12-05T04:20:35.046Z,20.42
2018-12-05T04:21:35.040Z,20.44
2018-12-05T04:22:35.053Z,20.40
2018-12-05T04:23:35.059Z,20.39
2018-12-05T04:24:35.187Z,20.42
2018-12-05T04:25:35.097Z,20.39
2018-12-05T04:26:35.129Z,20.46
2018-12-05T04:27:35.140Z,20.55
2018-12-05T04:28:35.148Z,20.56
2018-12-05T04:29:35.212Z,20.63
2018-12-05T04:30:35.177Z,20.55
2018-12-05T04:31:35.195Z,20.66
2018-12-05T04:32:35.214Z,20.60
2018-12-05T04:33:35.216Z,20.66
2018-12-05T04:34:35.290Z,20.66
2018-12-05T04:35:35.389Z,20.67
2018-12-05T04:36:35.267Z,20.68
2018-12-05T04:37:35.261Z,20.77
2018-12-05T04:38:35.392Z,20.66
2018-12-05T04:39:35.333Z,20.73
2018-12-05T04:40:35.325Z,20.68
2018-12-05T04:41:35.346Z,20.64
2018-12-05T04:42:35.343Z,20.70
2018-12-05T04:43:35.420Z,20.75
2018-12-05T04:44:35.396Z,20.74
2018-12-05T04:45:35.390Z,20.75
2018-12-05T04:46:35.528Z,20.74
2018-12-05T04:47:35.480Z,20.64
2018-12-05T04:48:35.467Z,20.74
2018-12-05T04:49:35.475Z,20.71
2018-12-05T04:50:35.486Z,20.66
2018-12-05T04:51:35.681Z,20.70
2018-12-05T04:52:35.525Z,20.74
2018-12-05T04:53:35.526Z,20.64
2018-12-05T04:54:35.535Z,20.68
2018-12-05T04:55:35.557Z,20.63
2018-12-05T04:56:35.712Z,20.71
2018-12-05T04:57:35.571Z,20.74
2018-12-05T04:58:35.640Z,20.68
2018-12-05T04:59:35.623Z,20.74
2018-12-05T05:00:35.675Z,20.63
2018-12-05T05:01:35.746Z,20.59
2018-12-05T05:02:35.677Z,20.46
2018-12-05T05:03:35.654Z,20.42
2018-12-05T05:04:35.684Z,20.50
2018-12-05T05:05:35.712Z,20.39
2018-12-05T05:06:41.673Z,20.40
2018-12-05T05:07:35.737Z,20.42
2018-12-05T05:08:35.741Z,20.40
2018-12-05T05:09:35.747Z,20.37
2018-12-05T05:10:35.785Z,20.42
2018-12-05T05:11:35.887Z,20.48
2018-12-05T05:12:35.816Z,20.44
2018-12-05T05:13:35.837Z,20.40
2018-12-05T05:14:35.831Z,20.39
2018-12-05T05:15:35.838Z,20.26
2018-12-05T05:16:35.970Z,20.26
2018-12-05T05:17:35.900Z,20.33
2018-12-05T05:18:35.903Z,20.27
2018-12-05T05:19:35.931Z,20.18
2018-12-05T05:20:35.938Z,20.17
2018-12-05T05:21:36.046Z,20.15
2018-12-05T05:22:35.964Z,20.19
2018-12-05T05:23:35.973Z,20.18
2018-12-05T05:24:35.992Z,20.19
2018-12-05T05:25:36.009Z,20.19
2018-12-05T05:26:36.177Z,20.17
2018-12-05T05:27:36.041Z,20.17
2018-12-05T05:28:36.055Z,20.18
2018-12-05T05:29:36.058Z,20.17
2018-12-05T05:30:36.065Z,20.18
2018-12-05T05:31:36.145Z,20.18
2018-12-05T05:32:36.105Z,20.21
2018-12-05T05:33:36.130Z,20.14
2018-12-05T05:34:36.135Z,20.27
2018-12-05T05:35:36.172Z,20.24
2018-12-05T05:36:36.312Z,20.15
2018-12-05T05:37:36.193Z,20.17
2018-12-05T05:38:36.208Z,20.21
2018-12-05T05:39:36.207Z,20.14
2018-12-05T05:40:36.236Z,20.17
2018-12-05T05:41:36.281Z,20.14
2018-12-05T05:42:36.267Z,20.17
2018-12-05T05:43:36.268Z,20.15
2018-12-05T05:44:36.308Z,20.12
2018-12-05T05:45:36.294Z,20.10
2018-12-05T05:46:36.422Z,20.12
2018-12-05T05:47:36.335Z,20.11
2018-12-05T05:48:36.341Z,20.18
2018-12-05T05:49:36.367Z,20.17
2018-12-05T05:50:36.380Z,20.18
2018-12-05T05:51:36.553Z,20.15
2018-12-05T05:52:36.397Z,20.15
2018-12-05T05:53:36.427Z,20.07
2018-12-05T05:54:36.426Z,20.15
2018-12-05T05:55:36.454Z,20.18
2018-12-05T05:56:36.562Z,20.17
2018-12-05T05:57:36.508Z,20.15
2018-12-05T05:58:36.491Z,20.04
2018-12-05T05:59:36.505Z,20.07
2018-12-05T06:00:36.532Z,20.04
2018-12-05T06:01:36.646Z,20.00
2018-12-05T06:02:36.576Z,19.97
2018-12-05T06:03:36.614Z,20.08
2018-12-05T06:04:36.613Z,20.04
2018-12-05T06:05:36.607Z,20.04
2018-12-05T06:06:36.779Z,20.07
2018-12-05T06:07:36.628Z,20.04
2018-12-05T06:08:36.646Z,20.03
2018-12-05T06:09:36.659Z,20.02
2018-12-05T06:10:36.686Z,20.04
2018-12-05T06:11:36.785Z,20.03
2018-12-05T06:12:36.696Z,20.03
2018-12-05T06:13:36.731Z,20.02
2018-12-05T06:14:36.742Z,20.04
2018-12-05T06:15:36.761Z,19.93
2018-12-05T06:16:36.869Z,20.03
2018-12-05T06:17:36.794Z,20.00
2018-12-05T06:18:36.793Z,19.96
2018-12-05T06:19:36.814Z,19.96
2018-12-05T06:20:36.824Z,19.93
2018-12-05T06:21:36.946Z,19.94
2018-12-05T06:22:36.872Z,20.02
2018-12-05T06:23:36.869Z,19.90
2018-12-05T06:24:36.930Z,19.96
2018-12-05T06:25:36.929Z,19.90
2018-12-05T06:26:36.983Z,19.97
2018-12-05T06:27:36.956Z,19.90
2018-12-05T06:28:36.970Z,19.96
2018-12-05T06:29:36.963Z,19.93
2018-12-05T06:30:36.983Z,19.96
2018-12-05T06:31:37.125Z,19.89
2018-12-05T06:32:36.986Z,19.85
2018-12-05T06:33:37.017Z,19.97
2018-12-05T06:34:37.040Z,19.89
2018-12-05T06:35:37.048Z,19.96
2018-12-05T06:36:37.124Z,20.02
2018-12-05T06:37:37.076Z,19.93
2018-12-05T06:38:37.200Z,19.90
2018-12-05T06:39:37.100Z,19.94
2018-12-05T06:40:37.133Z,19.90
2018-12-05T06:41:37.199Z,19.87
2018-12-05T06:42:37.164Z,19.90
2018-12-05T06:43:37.155Z,19.93
2018-12-05T06:44:37.327Z,19.96
2018-12-05T06:45:37.193Z,19.97
2018-12-05T06:46:37.232Z,19.94
2018-12-05T06:47:37.217Z,19.96
2018-12-05T06:48:37.242Z,19.92
2018-12-05T06:49:37.361Z,19.92
2018-12-05T06:50:37.285Z,19.93
2018-12-05T06:51:37.300Z,19.92
2018-12-05T06:52:37.290Z,19.96
2018-12-05T06:53:37.336Z,20.02
2018-12-05T06:54:37.474Z,20.00
2018-12-05T06:55:39.317Z,19.93
2018-12-05T06:56:37.360Z,19.94
2018-12-05T06:57:37.375Z,19.93
2018-12-05T06:58:37.403Z,19.93
2018-12-05T06:59:37.554Z,20.04
2018-12-05T07:00:37.426Z,20.00
2018-12-05T07:01:37.501Z,20.04
2018-12-05T07:02:37.464Z,20.17
2018-12-05T07:03:37.463Z,20.18
2018-12-05T07:04:37.571Z,20.19
2018-12-05T07:05:37.504Z,20.19
2018-12-05T07:06:37.500Z,20.19
2018-12-05T07:07:37.535Z,20.30
2018-12-05T07:08:37.545Z,20.19
2018-12-05T07:09:37.661Z,20.10
2018-12-05T07:10:37.564Z,20.10
2018-12-05T07:11:37.572Z,20.12
2018-12-05T07:12:37.687Z,20.03
2018-12-05T07:13:37.622Z,20.03
2018-12-05T07:14:37.789Z,20.11
2018-12-05T07:15:37.629Z,19.97
2018-12-05T07:16:37.646Z,20.00
2018-12-05T07:17:37.657Z,20.00
2018-12-05T07:18:37.673Z,20.02
2018-12-05T07:19:37.869Z,20.14
2018-12-05T07:20:37.732Z,20.03
2018-12-05T07:21:37.739Z,20.11
2018-12-05T07:22:37.760Z,20.08
2018-12-05T07:23:37.804Z,20.11
2018-12-05T07:24:37.786Z,20.03
2018-12-05T07:25:37.893Z,20.02
2018-12-05T07:26:37.816Z,20.03
2018-12-05T07:27:37.845Z,20.10
2018-12-05T07:28:37.856Z,20.10
2018-12-05T07:29:37.849Z,20.19
2018-12-05T07:30:37.980Z,20.14
2018-12-05T07:31:37.878Z,20.07
2018-12-05T07:32:37.885Z,20.02
2018-12-05T07:34:37.937Z,20.00
2018-12-05T07:35:37.988Z,19.96
2018-12-05T07:36:37.945Z,19.87
2018-12-05T07:37:38.068Z,19.81
2018-12-05T07:38:38.027Z,19.75
2018-12-05T07:39:38.041Z,19.79
2018-12-05T07:40:38.225Z,19.78
2018-12-05T07:41:38.071Z,19.77
2018-12-05T07:42:38.053Z,19.74
2018-12-05T07:43:38.068Z,19.70
2018-12-05T07:44:38.074Z,19.66
2018-12-05T07:45:38.254Z,19.67
2018-12-05T07:46:38.115Z,19.78
2018-12-05T07:47:38.116Z,19.78
2018-12-05T07:48:38.131Z,19.77
2018-12-05T07:49:38.151Z,19.63
2018-12-05T07:50:38.249Z,19.63
2018-12-05T07:51:38.184Z,19.67
2018-12-05T07:52:38.193Z,19.72
2018-12-05T07:53:38.206Z,19.67
2018-12-05T07:54:38.216Z,19.67
2018-12-05T07:55:38.342Z,19.64
2018-12-05T07:56:38.246Z,19.63
2018-12-05T07:57:38.262Z,19.77
2018-12-05T07:58:38.275Z,19.77
2018-12-05T07:59:38.305Z,19.78
2018-12-05T08:00:38.403Z,19.79
2018-12-05T08:01:38.325Z,19.70
2018-12-05T08:02:38.334Z,19.63
2018-12-05T08:03:38.358Z,19.66
2018-12-05T08:04:38.412Z,19.63
2018-12-05T08:05:38.525Z,19.67
2018-12-05T08:06:38.407Z,19.66
2018-12-05T08:07:38.450Z,19.75
2018-12-05T08:08:38.421Z,19.64
2018-12-05T08:09:38.442Z,19.78
2018-12-05T08:10:38.556Z,19.79
2018-12-05T08:11:38.465Z,19.79
2018-12-05T08:12:38.481Z,19.79
2018-12-05T08:13:38.495Z,19.77
2018-12-05T08:14:38.518Z,19.75
2018-12-05T08:15:38.574Z,19.77
2018-12-05T08:16:38.526Z,19.78
2018-12-05T08:17:38.538Z,19.81
2018-12-05T08:18:38.591Z,19.84
2018-12-05T08:19:38.590Z,19.85
2018-12-05T08:20:38.756Z,19.82
2018-12-05T08:21:38.606Z,19.84
2018-12-05T08:22:38.643Z,19.85
2018-12-05T08:23:38.711Z,19.87
2018-12-05T08:24:38.658Z,19.99
2018-12-05T08:25:38.674Z,20.04
2018-12-05T08:26:38.837Z,20.03
2018-12-05T08:27:38.685Z,20.08
2018-12-05T08:28:38.770Z,20.03
2018-12-05T08:29:38.741Z,20.14
2018-12-05T08:30:38.752Z,20.19
2018-12-05T08:31:38.855Z,20.19
2018-12-05T08:32:38.789Z,20.14
2018-12-05T08:33:38.803Z,20.24
2018-12-05T08:34:38.906Z,20.32
2018-12-05T08:35:38.825Z,20.27
2018-12-05T08:36:38.941Z,20.33
2018-12-05T08:37:38.855Z,20.39
2018-12-05T08:38:38.872Z,20.53
2018-12-05T08:39:38.878Z,20.58
2018-12-05T08:40:38.884Z,20.55
2018-12-05T08:41:39.017Z,20.75
2018-12-05T08:42:38.939Z,20.60
2018-12-05T08:43:38.946Z,20.75
2018-12-05T08:44:38.942Z,20.82
2018-12-05T08:45:39.025Z,20.70
2018-12-05T08:46:39.033Z,20.86
2018-12-05T08:47:39.026Z,20.98
2018-12-05T08:48:39.016Z,21.03
2018-12-05T08:49:39.021Z,21.07
2018-12-05T08:50:39.149Z,21.08
2018-12-05T08:51:39.075Z,21.19
2018-12-05T08:52:39.071Z,21.23
2018-12-05T08:53:39.108Z,21.35
2018-12-05T08:54:39.100Z,21.44
2018-12-05T08:55:39.215Z,21.45
2018-12-05T08:56:39.133Z,21.58
2018-12-05T08:57:39.171Z,21.60
2018-12-05T08:58:39.197Z,21.63
2018-12-05T08:59:39.188Z,21.70
2018-12-05T09:00:39.368Z,21.81
2018-12-05T09:01:39.240Z,21.97
2018-12-05T09:02:39.254Z,22.19
2018-12-05T09:03:39.298Z,22.33
2018-12-05T09:04:39.293Z,22.40
2018-12-05T09:05:39.326Z,22.51
2018-12-05T09:06:39.401Z,22.46
2018-12-05T09:07:39.337Z,22.30
2018-12-05T09:08:39.336Z,22.37
2018-12-05T09:09:39.364Z,22.33
2018-12-05T09:10:39.386Z,22.38
2018-12-05T09:11:39.548Z,22.65
2018-12-05T09:12:39.398Z,22.96
2018-12-05T09:13:39.447Z,23.36
2018-12-05T09:14:39.442Z,23.69
2018-12-05T09:15:39.470Z,23.85
2018-12-05T09:16:39.584Z,24.16
2018-12-05T09:17:39.503Z,24.40
2018-12-05T09:18:39.504Z,24.66
2018-12-05T09:19:39.576Z,24.86
2018-12-05T09:20:39.537Z,25.11
2018-12-05T09:21:39.700Z,25.15
2018-12-05T09:22:41.517Z,25.40
2018-12-05T09:23:39.601Z,25.62
2018-12-05T09:24:39.623Z,25.78
2018-12-05T09:25:39.631Z,26.07
2018-12-05T09:26:39.757Z,26.23
2018-12-05T09:27:39.666Z,26.55
2018-12-05T09:28:39.702Z,26.74
2018-12-05T09:29:39.762Z,27.07
2018-12-05T09:30:39.737Z,27.26
2018-12-05T09:31:39.847Z,27.55
2018-12-05T09:32:39.769Z,27.82
2018-12-05T09:33:39.805Z,28.00
2018-12-05T09:34:39.815Z,28.13
2018-12-05T09:35:39.824Z,28.33
2018-12-05T09:36:39.943Z,28.59
2018-12-05T09:37:39.870Z,28.93
2018-12-05T09:38:39.880Z,29.10
2018-12-05T09:39:39.911Z,29.49
2018-12-05T09:40:39.928Z,29.68
2018-12-05T09:41:40.103Z,29.95
2018-12-05T09:42:39.989Z,30.18
2018-12-05T09:43:40.011Z,30.38
2018-12-05T09:44:40.013Z,30.74
2018-12-05T09:45:40.027Z,30.86
2018-12-05T09:46:40.100Z,31.13
2018-12-05T09:47:40.082Z,31.29
2018-12-05T09:48:40.107Z,31.42
2018-12-05T09:49:40.222Z,31.59
2018-12-05T09:50:40.134Z,31.54
2018-12-05T09:51:40.154Z,31.59
2018-12-05T09:52:40.196Z,31.62
2018-12-05T09:53:40.224Z,31.79
2018-12-05T09:54:40.291Z,31.85
2018-12-05T09:55:40.255Z,32.00
2018-12-05T09:56:40.279Z,32.26
2018-12-05T09:57:40.280Z,32.41
2018-12-05T09:58:40.305Z,32.64
2018-12-05T09:59:40.383Z,32.88
2018-12-05T10:00:40.360Z,32.98
2018-12-05T10:01:40.379Z,33.15
2018-12-05T10:02:40.413Z,33.17
2018-12-05T10:03:40.416Z,33.29
2018-12-05T10:04:40.512Z,33.40
2018-12-05T10:05:40.487Z,33.60
2018-12-05T10:06:40.472Z,33.60
2018-12-05T10:07:40.516Z,34.02
2018-12-05T10:08:40.527Z,34.16
2018-12-05T10:09:40.601Z,34.26
2018-12-05T10:10:40.565Z,34.28
2018-12-05T10:11:40.601Z,34.22
2018-12-05T10:12:40.620Z,34.32
2018-12-05T10:13:40.768Z,34.59
2018-12-05T10:14:40.669Z,34.96
2018-12-05T10:15:40.700Z,35.15
2018-12-05T10:16:41.137Z,35.22
2018-12-05T10:17:40.728Z,34.97
2018-12-05T10:18:40.812Z,34.76
2018-12-05T10:19:40.791Z,34.71
2018-12-05T10:20:40.885Z,34.76
2018-12-05T10:21:40.846Z,35.00
2018-12-05T10:22:40.964Z,35.37
2018-12-05T10:23:40.880Z,35.71
2018-12-05T10:24:40.916Z,35.81
2018-12-05T10:25:40.925Z,36.16
2018-12-05T10:26:40.951Z,35.86
2018-12-05T10:27:41.017Z,35.64
2018-12-05T10:28:40.997Z,35.54
2018-12-05T10:29:41.055Z,35.53
2018-12-05T10:30:41.207Z,35.66
2018-12-05T10:31:44.157Z,35.72
2018-12-05T10:32:41.151Z,35.87
2018-12-05T10:33:41.114Z,35.91
2018-12-05T10:34:41.148Z,36.14
2018-12-05T10:35:41.288Z,36.28
2018-12-05T10:36:41.207Z,36.38
2018-12-05T10:37:41.222Z,36.45
2018-12-05T10:38:41.255Z,36.32
2018-12-05T10:39:41.359Z,35.96
2018-12-05T10:40:41.336Z,35.79
2018-12-05T10:41:41.337Z,35.86
2018-12-05T10:42:41.356Z,35.94
2018-12-05T10:43:41.423Z,36.13
2018-12-05T10:44:41.391Z,36.14
2018-12-05T10:45:41.449Z,36.20
2018-12-05T10:46:41.455Z,36.17
2018-12-05T10:47:41.633Z,35.87
2018-12-05T10:48:41.511Z,36.13
2018-12-05T10:49:41.528Z,36.03
2018-12-05T10:50:41.570Z,36.24
2018-12-05T10:51:41.572Z,36.72
2018-12-05T10:52:41.717Z,37.10
2018-12-05T10:53:41.647Z,37.34
2018-12-05T10:54:41.691Z,37.14
2018-12-05T10:55:41.673Z,36.50
2018-12-05T10:56:41.696Z,36.55
2018-12-05T10:57:41.785Z,36.51
2018-12-05T10:58:41.755Z,36.39
2018-12-05T10:59:41.789Z,36.01
2018-12-05T11:00:41.802Z,35.60
2018-12-05T11:01:41.849Z,35.76
2018-12-05T11:02:42.007Z,36.13
2018-12-05T11:03:41.876Z,36.25
2018-12-05T11:04:41.919Z,36.06
2018-12-05T11:05:41.960Z,35.25
2018-12-05T11:06:41.966Z,35.37
2018-12-05T11:07:42.117Z,35.81
2018-12-05T11:08:42.020Z,36.55
2018-12-05T11:09:42.026Z,37.21
2018-12-05T11:10:42.075Z,37.48
2018-12-05T11:11:42.091Z,36.97
2018-12-05T11:12:42.209Z,36.59
2018-12-05T11:13:42.191Z,36.67
2018-12-05T11:14:42.176Z,36.22
2018-12-05T11:15:42.215Z,36.18
2018-12-05T11:16:42.214Z,36.50
2018-12-05T11:17:42.361Z,37.21
2018-12-05T11:18:42.297Z,37.83
2018-12-05T11:19:42.325Z,38.35
2018-12-05T11:20:42.358Z,38.95
2018-12-05T11:21:49.567Z,39.48
2018-12-05T11:22:42.473Z,39.29
2018-12-05T11:23:42.411Z,39.26
2018-12-05T11:24:42.445Z,38.98
2018-12-05T11:25:42.484Z,38.00
2018-12-05T11:26:42.493Z,37.31
2018-12-05T11:27:42.623Z,36.96
2018-12-05T11:28:42.578Z,37.37
2018-12-05T11:29:42.729Z,37.57
2018-12-05T11:30:42.609Z,37.67
2018-12-05T11:31:42.644Z,37.91
2018-12-05T11:32:42.752Z,38.54
2018-12-05T11:33:42.684Z,39.08
2018-12-05T11:34:42.722Z,39.15
2018-12-05T11:35:42.757Z,39.22
2018-12-05T11:36:42.749Z,39.32
2018-12-05T11:37:42.893Z,38.98
2018-12-05T11:38:42.812Z,38.05
2018-12-05T11:39:42.879Z,37.41
2018-12-05T11:40:42.885Z,37.25
2018-12-05T11:41:42.892Z,37.58
2018-12-05T11:42:43.055Z,38.00
2018-12-05T11:43:42.962Z,37.64
2018-12-05T11:44:42.981Z,36.63
2018-12-05T11:45:43.008Z,36.73
2018-12-05T11:46:43.028Z,36.39
2018-12-05T11:47:43.170Z,35.71
2018-12-05T11:48:43.115Z,35.00
2018-12-05T11:49:43.132Z,34.53
2018-12-05T11:50:43.159Z,34.04
2018-12-05T11:51:43.173Z,33.81
2018-12-05T11:52:43.341Z,33.92
2018-12-05T11:53:43.239Z,33.50
2018-12-05T11:54:43.264Z,33.69
2018-12-05T11:55:43.267Z,34.33
2018-12-05T11:56:43.312Z,34.93
2018-12-05T11:57:43.470Z,35.20
2018-12-05T11:58:43.359Z,35.08
2018-12-05T11:59:43.392Z,34.71
2018-12-05T12:00:43.404Z,34.94
2018-12-05T12:01:43.437Z,34.82
2018-12-05T12:02:43.516Z,35.50
2018-12-05T12:03:43.497Z,36.22
2018-12-05T12:04:43.502Z,36.60
2018-12-05T12:05:43.550Z,36.96
2018-12-05T12:06:43.575Z,37.53
2018-12-05T12:07:43.672Z,37.76
2018-12-05T12:08:43.628Z,37.64
2018-12-05T12:09:43.698Z,37.64
2018-12-05T12:10:43.675Z,37.29
2018-12-05T12:11:43.698Z,37.44
2018-12-05T12:12:43.820Z,37.44
2018-12-05T12:13:43.756Z,37.86
2018-12-05T12:14:43.772Z,38.46
2018-12-05T12:15:43.812Z,37.90
2018-12-05T12:16:43.839Z,37.14
2018-12-05T12:17:43.945Z,37.63
2018-12-05T12:18:43.901Z,37.91
2018-12-05T12:19:43.961Z,37.25
2018-12-05T12:20:43.939Z,37.18
2018-12-05T12:21:44.017Z,36.80
2018-12-05T12:22:44.107Z,36.94
2018-12-05T12:23:44.019Z,37.19
2018-12-05T12:24:44.053Z,36.50
2018-12-05T12:25:44.078Z,36.22
2018-12-05T12:26:44.105Z,36.65
2018-12-05T12:27:44.169Z,36.87
2018-12-05T12:28:44.169Z,36.20
2018-12-05T12:29:44.191Z,36.55
2018-12-05T12:30:44.343Z,36.88
2018-12-05T12:31:44.243Z,36.22
2018-12-05T12:32:44.270Z,35.86
2018-12-05T12:33:44.297Z,35.60
2018-12-05T12:34:44.351Z,36.39
2018-12-05T12:35:44.452Z,36.67
2018-12-05T12:36:44.369Z,37.03
2018-12-05T12:37:44.422Z,37.22
2018-12-05T12:38:44.476Z,36.65
2018-12-05T12:39:44.488Z,36.69
2018-12-05T12:40:44.615Z,36.51
2018-12-05T12:41:44.529Z,37.16
2018-12-05T12:42:44.568Z,37.73
2018-12-05T12:43:44.563Z,38.28
2018-12-05T12:44:44.637Z,38.56
2018-12-05T12:45:44.739Z,38.34
2018-12-05T12:46:44.666Z,37.73
2018-12-05T12:47:44.688Z,38.29
2018-12-05T12:48:44.708Z,38.70
2018-12-05T12:49:44.752Z,39.01
2018-12-05T12:50:44.860Z,38.92
2018-12-05T12:51:44.799Z,38.96
2018-12-05T12:52:44.836Z,38.66
2018-12-05T12:53:44.865Z,38.14